Terminal Aerodrome Forecast
Issued by NWS

Home | Current Version | Previous Version | Text Only | Print | Product List | Glossary On
Versions: 1 2 3 4 5 6 7 8 9 10 11 12 13 14 15 16 17 18 19 20 21 22 23 24 25 26 27 28 29 30 31 32 33 34 35 36 37
000
FTUS45 KPSR 021100
TAFSDL
TAF
KSDL 021120Z 0212/0312 15005KT P6SM SCT040 OVC050
     FM021400 17010KT P6SM VCSH BKN040 OVC060
     FM021700 19013KT P6SM -RA SCT020 OVC030
      TEMPO 0217/0219 24010G20KT 3SM RA BR BKN015 OVC025
     FM022100 24007KT P6SM VCSH SCT020 BKN040
     FM022300 25005KT P6SM SCT040 BKN250
     FM030200 VRB04KT P6SM BKN080=

USA.gov is the U.S. government's official web portal to all federal, state and local government web resources and services.